sensor_id;sensor_type;location;lat;lon;timestamp;P1;durP1;ratioP1;P2;durP2;ratioP2
2390;SDS011;22957;50.824;4.360;2023-06-10T00:01:44;1343.83;;;999.90;;
2390;SDS011;22957;50.824;4.360;2023-06-10T00:04:15;1315.47;;;999.90;;
2390;SDS011;22957;50.824;4.360;2023-06-10T00:06:44;1344.30;;;999.90;;
2390;SDS011;22957;50.824;4.360;2023-06-10T00:09:10;1347.33;;;999.90;;
2390;SDS011;22957;50.824;4.360;2023-06-10T00:11:36;1356.37;;;999.90;;
2390;SDS011;22957;50.824;4.360;2023-06-10T00:14:02;1339.20;;;999.90;;
2390;SDS011;22957;50.824;4.360;2023-06-10T00:16:28;1355.43;;;999.90;;
2390;SDS011;22957;50.824;4.360;2023-06-10T00:18:53;1362.60;;;999.90;;
2390;SDS011;22957;50.824;4.360;2023-06-10T00:21:29;1350.43;;;999.90;;
2390;SDS011;22957;50.824;4.360;2023-06-10T00:24:02;1362.03;;;999.90;;
2390;SDS011;22957;50.824;4.360;2023-06-10T00:26:30;1356.30;;;999.90;;
2390;SDS011;22957;50.824;4.360;2023-06-10T00:28:56;1352.00;;;999.90;;
2390;SDS011;22957;50.824;4.360;2023-06-10T00:31:21;1353.03;;;999.90;;
2390;SDS011;22957;50.824;4.360;2023-06-10T00:33:47;1349.50;;;999.90;;
2390;SDS011;22957;50.824;4.360;2023-06-10T00:36:12;1343.50;;;999.90;;
2390;SDS011;22957;50.824;4.360;2023-06-10T00:38:38;1348.30;;;999.90;;
2390;SDS011;22957;50.824;4.360;2023-06-10T00:41:05;1325.77;;;999.90;;
2390;SDS011;22957;50.824;4.360;2023-06-10T00:43:31;1319.37;;;999.90;;
2390;SDS011;22957;50.824;4.360;2023-06-10T00:45:56;1363.17;;;999.90;;
2390;SDS011;22957;50.824;4.360;2023-06-10T00:48:22;1354.03;;;999.90;;
2390;SDS011;22957;50.824;4.360;2023-06-10T00:50:47;1328.83;;;999.90;;
2390;SDS011;22957;50.824;4.360;2023-06-10T00:53:14;1365.97;;;999.90;;
2390;SDS011;22957;50.824;4.360;2023-06-10T00:55:40;1361.47;;;999.90;;
2390;SDS011;22957;50.824;4.360;2023-06-10T00:58:06;1354.13;;;999.90;;
2390;SDS011;22957;50.824;4.360;2023-06-10T01:00:32;1354.40;;;999.90;;
2390;SDS011;22957;50.824;4.360;2023-06-10T01:02:58;1350.90;;;999.90;;
2390;SDS011;22957;50.824;4.360;2023-06-10T01:05:23;1359.53;;;999.90;;
2390;SDS011;22957;50.824;4.360;2023-06-10T01:12:58;1350.83;;;999.90;;
2390;SDS011;22957;50.824;4.360;2023-06-10T01:15:27;1362.03;;;999.90;;
2390;SDS011;22957;50.824;4.360;2023-06-10T01:18:00;1367.40;;;999.90;;
2390;SDS011;22957;50.824;4.360;2023-06-10T01:20:27;1381.63;;;999.90;;
2390;SDS011;22957;50.824;4.360;2023-06-10T01:22:54;1369.17;;;999.90;;
2390;SDS011;22957;50.824;4.360;2023-06-10T01:25:22;1353.47;;;999.90;;
2390;SDS011;22957;50.824;4.360;2023-06-10T01:28:14;1352.70;;;999.90;;
2390;SDS011;22957;50.824;4.360;2023-06-10T01:33:12;1355.60;;;999.90;;
2390;SDS011;22957;50.824;4.360;2023-06-10T01:35:42;1312.90;;;999.90;;
2390;SDS011;22957;50.824;4.360;2023-06-10T01:38:08;1318.43;;;999.90;;
2390;SDS011;22957;50.824;4.360;2023-06-10T01:40:36;1225.53;;;999.90;;
2390;SDS011;22957;50.824;4.360;2023-06-10T01:43:03;1254.67;;;999.90;;
2390;SDS011;22957;50.824;4.360;2023-06-10T01:45:29;1354.40;;;999.90;;
2390;SDS011;22957;50.824;4.360;2023-06-10T01:47:55;1380.03;;;999.90;;
2390;SDS011;22957;50.824;4.360;2023-06-10T01:50:20;1390.33;;;999.90;;
2390;SDS011;22957;50.824;4.360;2023-06-10T01:52:46;1385.13;;;999.90;;
2390;SDS011;22957;50.824;4.360;2023-06-10T01:55:11;1372.60;;;999.90;;
2390;SDS011;22957;50.824;4.360;2023-06-10T01:57:37;1382.87;;;999.90;;
2390;SDS011;22957;50.824;4.360;2023-06-10T02:00:02;1322.13;;;999.90;;
2390;SDS011;22957;50.824;4.360;2023-06-10T02:02:28;1221.47;;;999.90;;
2390;SDS011;22957;50.824;4.360;2023-06-10T02:04:54;1307.53;;;999.90;;
2390;SDS011;22957;50.824;4.360;2023-06-10T02:07:20;1233.60;;;999.90;;
2390;SDS011;22957;50.824;4.360;2023-06-10T02:09:45;1371.83;;;999.90;;
2390;SDS011;22957;50.824;4.360;2023-06-10T02:12:11;1373.93;;;999.90;;
2390;SDS011;22957;50.824;4.360;2023-06-10T02:14:36;1371.40;;;999.90;;
2390;SDS011;22957;50.824;4.360;2023-06-10T02:17:02;1350.70;;;999.90;;
2390;SDS011;22957;50.824;4.360;2023-06-10T02:19:29;1365.37;;;999.90;;
2390;SDS011;22957;50.824;4.360;2023-06-10T02:21:55;1360.70;;;999.90;;
2390;SDS011;22957;50.824;4.360;2023-06-10T02:24:21;1150.13;;;999.90;;
2390;SDS011;22957;50.824;4.360;2023-06-10T02:26:46;1343.40;;;999.90;;
2390;SDS011;22957;50.824;4.360;2023-06-10T02:29:13;1351.80;;;999.90;;
2390;SDS011;22957;50.824;4.360;2023-06-10T02:31:38;1349.60;;;999.90;;
2390;SDS011;22957;50.824;4.360;2023-06-10T02:34:04;1253.57;;;999.90;;
2390;SDS011;22957;50.824;4.360;2023-06-10T02:36:30;1301.10;;;999.90;;
2390;SDS011;22957;50.824;4.360;2023-06-10T02:38:56;1344.63;;;999.90;;
2390;SDS011;22957;50.824;4.360;2023-06-10T02:41:22;1330.37;;;999.90;;
2390;SDS011;22957;50.824;4.360;2023-06-10T02:43:48;1331.50;;;999.90;;
2390;SDS011;22957;50.824;4.360;2023-06-10T02:46:13;1326.47;;;999.90;;
2390;SDS011;22957;50.824;4.360;2023-06-10T02:48:45;1323.57;;;999.90;;
2390;SDS011;22957;50.824;4.360;2023-06-10T02:51:11;1331.50;;;999.90;;
2390;SDS011;22957;50.824;4.360;2023-06-10T02:53:36;1347.53;;;999.90;;
2390;SDS011;22957;50.824;4.360;2023-06-10T02:56:02;1339.50;;;999.90;;
2390;SDS011;22957;50.824;4.360;2023-06-10T02:58:28;1346.07;;;999.90;;
2390;SDS011;22957;50.824;4.360;2023-06-10T03:00:54;1342.93;;;999.90;;
2390;SDS011;22957;50.824;4.360;2023-06-10T03:03:20;1340.73;;;999.90;;
2390;SDS011;22957;50.824;4.360;2023-06-10T03:05:47;1327.87;;;999.90;;
2390;SDS011;22957;50.824;4.360;2023-06-10T03:08:13;1328.33;;;999.90;;
2390;SDS011;22957;50.824;4.360;2023-06-10T03:10:38;1309.23;;;999.90;;
2390;SDS011;22957;50.824;4.360;2023-06-10T03:13:04;1322.67;;;999.90;;
2390;SDS011;22957;50.824;4.360;2023-06-10T03:15:30;1348.27;;;999.90;;
2390;SDS011;22957;50.824;4.360;2023-06-10T03:17:57;1324.70;;;999.90;;
2390;SDS011;22957;50.824;4.360;2023-06-10T03:20:25;1243.43;;;999.90;;
2390;SDS011;22957;50.824;4.360;2023-06-10T03:22:52;1340.27;;;999.90;;
2390;SDS011;22957;50.824;4.360;2023-06-10T03:25:18;1341.17;;;999.90;;
2390;SDS011;22957;50.824;4.360;2023-06-10T03:27:45;1322.40;;;999.90;;
2390;SDS011;22957;50.824;4.360;2023-06-10T03:30:12;1341.47;;;999.90;;
2390;SDS011;22957;50.824;4.360;2023-06-10T03:32:39;1331.87;;;999.90;;
2390;SDS011;22957;50.824;4.360;2023-06-10T03:35:06;1266.03;;;999.90;;
2390;SDS011;22957;50.824;4.360;2023-06-10T03:37:32;1055.00;;;956.77;;
2390;SDS011;22957;50.824;4.360;2023-06-10T03:39:57;1148.00;;;999.90;;
2390;SDS011;22957;50.824;4.360;2023-06-10T03:42:23;1277.03;;;999.90;;
2390;SDS011;22957;50.824;4.360;2023-06-10T03:44:48;1330.77;;;999.90;;
2390;SDS011;22957;50.824;4.360;2023-06-10T03:47:14;1337.80;;;999.90;;
2390;SDS011;22957;50.824;4.360;2023-06-10T03:49:39;1334.73;;;999.90;;
2390;SDS011;22957;50.824;4.360;2023-06-10T03:52:05;1199.83;;;999.90;;
2390;SDS011;22957;50.824;4.360;2023-06-10T03:54:31;978.07;;;889.17;;
2390;SDS011;22957;50.824;4.360;2023-06-10T03:56:59;1169.03;;;999.90;;
2390;SDS011;22957;50.824;4.360;2023-06-10T03:59:25;1323.63;;;999.90;;
2390;SDS011;22957;50.824;4.360;2023-06-10T04:01:50;1292.07;;;999.90;;
2390;SDS011;22957;50.824;4.360;2023-06-10T04:04:16;1317.50;;;999.90;;
2390;SDS011;22957;50.824;4.360;2023-06-10T04:06:42;1045.50;;;949.20;;
2390;SDS011;22957;50.824;4.360;2023-06-10T04:09:08;1248.17;;;999.90;;
2390;SDS011;22957;50.824;4.360;2023-06-10T04:11:35;1219.43;;;999.90;;
2390;SDS011;22957;50.824;4.360;2023-06-10T04:14:01;1091.37;;;991.17;;
2390;SDS011;22957;50.824;4.360;2023-06-10T04:16:27;1033.00;;;938.47;;
2390;SDS011;22957;50.824;4.360;2023-06-10T04:18:52;1066.63;;;967.60;;
2390;SDS011;22957;50.824;4.360;2023-06-10T04:21:18;1302.83;;;999.90;;
2390;SDS011;22957;50.824;4.360;2023-06-10T04:23:43;1317.47;;;999.90;;
2390;SDS011;22957;50.824;4.360;2023-06-10T04:26:09;1326.53;;;999.90;;
2390;SDS011;22957;50.824;4.360;2023-06-10T04:28:37;1139.07;;;999.90;;
2390;SDS011;22957;50.824;4.360;2023-06-10T04:31:02;1054.87;;;956.83;;
2390;SDS011;22957;50.824;4.360;2023-06-10T04:33:29;1168.47;;;999.90;;
2390;SDS011;22957;50.824;4.360;2023-06-10T04:35:55;1317.57;;;999.90;;
2390;SDS011;22957;50.824;4.360;2023-06-10T04:38:20;1346.30;;;999.90;;
2390;SDS011;22957;50.824;4.360;2023-06-10T04:40:46;1336.17;;;999.90;;
2390;SDS011;22957;50.824;4.360;2023-06-10T04:43:12;1339.80;;;999.90;;
2390;SDS011;22957;50.824;4.360;2023-06-10T04:45:38;1043.50;;;943.63;;
2390;SDS011;22957;50.824;4.360;2023-06-10T04:48:04;1276.30;;;999.90;;
2390;SDS011;22957;50.824;4.360;2023-06-10T04:50:30;1093.90;;;990.53;;
2390;SDS011;22957;50.824;4.360;2023-06-10T04:52:58;1156.97;;;999.90;;
2390;SDS011;22957;50.824;4.360;2023-06-10T04:55:23;1203.07;;;999.90;;
2390;SDS011;22957;50.824;4.360;2023-06-10T04:57:50;1353.13;;;999.90;;
2390;SDS011;22957;50.824;4.360;2023-06-10T05:00:16;1348.57;;;999.90;;
2390;SDS011;22957;50.824;4.360;2023-06-10T05:02:42;1342.87;;;999.90;;
2390;SDS011;22957;50.824;4.360;2023-06-10T05:05:07;1357.93;;;999.90;;
2390;SDS011;22957;50.824;4.360;2023-06-10T05:07:33;1335.90;;;999.90;;
2390;SDS011;22957;50.824;4.360;2023-06-10T05:09:59;1374.07;;;999.90;;
2390;SDS011;22957;50.824;4.360;2023-06-10T05:12:24;1360.83;;;999.90;;
2390;SDS011;22957;50.824;4.360;2023-06-10T05:14:50;1376.57;;;999.90;;
2390;SDS011;22957;50.824;4.360;2023-06-10T05:17:16;1385.77;;;999.90;;
2390;SDS011;22957;50.824;4.360;2023-06-10T05:19:42;1389.47;;;999.90;;
2390;SDS011;22957;50.824;4.360;2023-06-10T05:22:08;1388.47;;;999.90;;
2390;SDS011;22957;50.824;4.360;2023-06-10T05:24:34;1395.67;;;999.90;;
2390;SDS011;22957;50.824;4.360;2023-06-10T05:26:59;1395.37;;;999.90;;
2390;SDS011;22957;50.824;4.360;2023-06-10T05:29:25;1390.50;;;999.90;;
2390;SDS011;22957;50.824;4.360;2023-06-10T05:31:51;1385.67;;;999.90;;
2390;SDS011;22957;50.824;4.360;2023-06-10T05:34:16;1387.80;;;999.90;;
2390;SDS011;22957;50.824;4.360;2023-06-10T05:36:43;1385.00;;;999.90;;
2390;SDS011;22957;50.824;4.360;2023-06-10T05:39:09;1387.93;;;999.90;;
2390;SDS011;22957;50.824;4.360;2023-06-10T05:41:35;1382.93;;;999.90;;
2390;SDS011;22957;50.824;4.360;2023-06-10T05:44:00;1379.97;;;999.90;;
2390;SDS011;22957;50.824;4.360;2023-06-10T05:46:26;1385.83;;;999.90;;
2390;SDS011;22957;50.824;4.360;2023-06-10T05:48:52;1377.10;;;999.90;;
2390;SDS011;22957;50.824;4.360;2023-06-10T05:51:17;1394.10;;;999.90;;
2390;SDS011;22957;50.824;4.360;2023-06-10T05:53:43;1384.13;;;999.90;;
2390;SDS011;22957;50.824;4.360;2023-06-10T05:56:08;1388.87;;;999.90;;
2390;SDS011;22957;50.824;4.360;2023-06-10T05:58:34;1387.33;;;999.90;;
2390;SDS011;22957;50.824;4.360;2023-06-10T06:00:59;1387.67;;;999.90;;
2390;SDS011;22957;50.824;4.360;2023-06-10T06:03:25;1393.77;;;999.90;;
2390;SDS011;22957;50.824;4.360;2023-06-10T06:05:50;1407.67;;;999.90;;
2390;SDS011;22957;50.824;4.360;2023-06-10T06:08:16;1410.23;;;999.90;;
2390;SDS011;22957;50.824;4.360;2023-06-10T06:10:44;1413.73;;;999.90;;
2390;SDS011;22957;50.824;4.360;2023-06-10T06:13:10;1405.00;;;999.90;;
2390;SDS011;22957;50.824;4.360;2023-06-10T06:15:36;1342.93;;;999.90;;
2390;SDS011;22957;50.824;4.360;2023-06-10T06:18:01;943.53;;;849.70;;
2390;SDS011;22957;50.824;4.360;2023-06-10T06:20:27;980.27;;;882.50;;
2390;SDS011;22957;50.824;4.360;2023-06-10T06:22:52;608.43;;;548.67;;
2390;SDS011;22957;50.824;4.360;2023-06-10T06:25:18;524.50;;;473.87;;
2390;SDS011;22957;50.824;4.360;2023-06-10T06:27:44;760.53;;;685.87;;
2390;SDS011;22957;50.824;4.360;2023-06-10T06:30:10;556.57;;;502.30;;
2390;SDS011;22957;50.824;4.360;2023-06-10T06:32:36;1400.53;;;999.90;;
2390;SDS011;22957;50.824;4.360;2023-06-10T06:35:02;971.47;;;875.43;;
2390;SDS011;22957;50.824;4.360;2023-06-10T06:37:29;1211.97;;;999.90;;
2390;SDS011;22957;50.824;4.360;2023-06-10T06:39:55;893.70;;;805.40;;
2390;SDS011;22957;50.824;4.360;2023-06-10T06:42:22;1267.03;;;999.90;;
2390;SDS011;22957;50.824;4.360;2023-06-10T06:44:48;881.83;;;794.40;;
2390;SDS011;22957;50.824;4.360;2023-06-10T06:47:14;1225.07;;;999.90;;
2390;SDS011;22957;50.824;4.360;2023-06-10T06:49:39;786.67;;;708.53;;
2390;SDS011;22957;50.824;4.360;2023-06-10T06:52:05;978.63;;;880.13;;
2390;SDS011;22957;50.824;4.360;2023-06-10T06:54:31;733.13;;;660.67;;
2390;SDS011;22957;50.824;4.360;2023-06-10T06:56:57;628.27;;;566.13;;
2390;SDS011;22957;50.824;4.360;2023-06-10T06:59:22;761.33;;;685.43;;
2390;SDS011;22957;50.824;4.360;2023-06-10T07:01:48;654.43;;;590.40;;
2390;SDS011;22957;50.824;4.360;2023-06-10T07:04:15;862.97;;;776.77;;
2390;SDS011;22957;50.824;4.360;2023-06-10T07:06:41;1131.40;;;999.90;;
2390;SDS011;22957;50.824;4.360;2023-06-10T07:09:09;737.87;;;665.40;;
2390;SDS011;22957;50.824;4.360;2023-06-10T07:11:35;426.63;;;385.13;;
2390;SDS011;22957;50.824;4.360;2023-06-10T07:14:00;589.03;;;531.23;;
2390;SDS011;22957;50.824;4.360;2023-06-10T07:16:26;699.07;;;629.53;;
2390;SDS011;22957;50.824;4.360;2023-06-10T07:18:55;944.03;;;847.73;;
2390;SDS011;22957;50.824;4.360;2023-06-10T07:21:20;783.77;;;704.37;;
2390;SDS011;22957;50.824;4.360;2023-06-10T07:23:47;997.43;;;894.77;;
2390;SDS011;22957;50.824;4.360;2023-06-10T07:26:13;453.23;;;408.63;;
2390;SDS011;22957;50.824;4.360;2023-06-10T07:28:39;998.43;;;896.20;;
2390;SDS011;22957;50.824;4.360;2023-06-10T07:31:05;656.37;;;590.83;;
2390;SDS011;22957;50.824;4.360;2023-06-10T07:33:32;643.17;;;578.77;;
2390;SDS011;22957;50.824;4.360;2023-06-10T07:35:57;667.67;;;600.03;;
2390;SDS011;22957;50.824;4.360;2023-06-10T07:38:24;681.13;;;613.07;;
2390;SDS011;22957;50.824;4.360;2023-06-10T07:40:50;959.80;;;862.07;;
2390;SDS011;22957;50.824;4.360;2023-06-10T07:43:16;1145.73;;;999.90;;
2390;SDS011;22957;50.824;4.360;2023-06-10T07:45:42;828.67;;;743.97;;
2390;SDS011;22957;50.824;4.360;2023-06-10T07:48:08;1025.70;;;918.37;;
2390;SDS011;22957;50.824;4.360;2023-06-10T07:50:34;948.77;;;849.83;;
2390;SDS011;22957;50.824;4.360;2023-06-10T07:53:00;1145.07;;;999.90;;
2390;SDS011;22957;50.824;4.360;2023-06-10T07:55:26;870.00;;;780.57;;
2390;SDS011;22957;50.824;4.360;2023-06-10T07:57:52;1269.60;;;999.90;;
2390;SDS011;22957;50.824;4.360;2023-06-10T08:00:18;995.37;;;892.50;;
2390;SDS011;22957;50.824;4.360;2023-06-10T08:02:44;955.13;;;856.70;;
2390;SDS011;22957;50.824;4.360;2023-06-10T08:05:10;971.73;;;870.53;;
2390;SDS011;22957;50.824;4.360;2023-06-10T08:07:36;1115.73;;;993.47;;
2390;SDS011;22957;50.824;4.360;2023-06-10T08:10:02;1274.03;;;999.90;;
2390;SDS011;22957;50.824;4.360;2023-06-10T08:12:29;1008.33;;;905.53;;
2390;SDS011;22957;50.824;4.360;2023-06-10T08:14:55;935.27;;;842.53;;
2390;SDS011;22957;50.824;4.360;2023-06-10T08:17:20;1478.27;;;999.90;;
2390;SDS011;22957;50.824;4.360;2023-06-10T08:19:46;1463.53;;;999.90;;
2390;SDS011;22957;50.824;4.360;2023-06-10T08:22:11;1407.27;;;999.90;;
2390;SDS011;22957;50.824;4.360;2023-06-10T08:24:37;1015.43;;;909.37;;
2390;SDS011;22957;50.824;4.360;2023-06-10T08:27:03;970.07;;;868.93;;
2390;SDS011;22957;50.824;4.360;2023-06-10T08:29:30;1127.03;;;999.57;;
2390;SDS011;22957;50.824;4.360;2023-06-10T08:31:56;900.13;;;805.77;;
2390;SDS011;22957;50.824;4.360;2023-06-10T08:34:22;1175.53;;;999.90;;
2390;SDS011;22957;50.824;4.360;2023-06-10T08:36:48;957.57;;;857.63;;
2390;SDS011;22957;50.824;4.360;2023-06-10T08:39:18;1042.47;;;933.20;;
2390;SDS011;22957;50.824;4.360;2023-06-10T08:41:46;1058.07;;;948.13;;
2390;SDS011;22957;50.824;4.360;2023-06-10T08:44:28;1025.37;;;916.83;;
2390;SDS011;22957;50.824;4.360;2023-06-10T08:46:58;1159.20;;;999.90;;
2390;SDS011;22957;50.824;4.360;2023-06-10T08:49:26;1428.43;;;999.90;;
2390;SDS011;22957;50.824;4.360;2023-06-10T08:51:56;1497.40;;;999.90;;
2390;SDS011;22957;50.824;4.360;2023-06-10T08:54:25;1546.43;;;999.90;;
2390;SDS011;22957;50.824;4.360;2023-06-10T08:56:53;1547.87;;;999.90;;
2390;SDS011;22957;50.824;4.360;2023-06-10T08:59:20;1552.97;;;999.90;;
2390;SDS011;22957;50.824;4.360;2023-06-10T09:01:46;1546.50;;;999.90;;
2390;SDS011;22957;50.824;4.360;2023-06-10T09:04:13;1541.23;;;999.90;;
2390;SDS011;22957;50.824;4.360;2023-06-10T09:06:39;1541.90;;;999.90;;
2390;SDS011;22957;50.824;4.360;2023-06-10T09:09:06;1547.10;;;999.90;;
2390;SDS011;22957;50.824;4.360;2023-06-10T09:11:32;1544.77;;;999.90;;
2390;SDS011;22957;50.824;4.360;2023-06-10T09:13:58;1542.63;;;999.90;;
2390;SDS011;22957;50.824;4.360;2023-06-10T09:16:26;1546.20;;;999.90;;
2390;SDS011;22957;50.824;4.360;2023-06-10T09:18:52;1545.40;;;999.90;;
2390;SDS011;22957;50.824;4.360;2023-06-10T09:21:23;1551.20;;;999.90;;
2390;SDS011;22957;50.824;4.360;2023-06-10T09:23:49;1549.33;;;999.90;;
2390;SDS011;22957;50.824;4.360;2023-06-10T09:26:15;1544.37;;;999.90;;
2390;SDS011;22957;50.824;4.360;2023-06-10T09:28:42;1540.63;;;999.90;;
2390;SDS011;22957;50.824;4.360;2023-06-10T09:31:09;1540.67;;;999.90;;
2390;SDS011;22957;50.824;4.360;2023-06-10T09:33:38;1543.37;;;999.90;;
2390;SDS011;22957;50.824;4.360;2023-06-10T09:36:04;1543.07;;;999.90;;
2390;SDS011;22957;50.824;4.360;2023-06-10T09:38:31;1547.43;;;999.90;;
2390;SDS011;22957;50.824;4.360;2023-06-10T09:40:58;1552.53;;;999.90;;
2390;SDS011;22957;50.824;4.360;2023-06-10T09:43:42;1549.33;;;999.90;;
2390;SDS011;22957;50.824;4.360;2023-06-10T09:46:15;1557.47;;;999.90;;
2390;SDS011;22957;50.824;4.360;2023-06-10T09:48:42;1554.73;;;999.90;;
2390;SDS011;22957;50.824;4.360;2023-06-10T09:51:09;1559.53;;;999.90;;
2390;SDS011;22957;50.824;4.360;2023-06-10T09:53:35;1559.27;;;999.90;;
2390;SDS011;22957;50.824;4.360;2023-06-10T09:56:02;1555.33;;;999.90;;
2390;SDS011;22957;50.824;4.360;2023-06-10T09:58:37;1555.93;;;999.90;;
2390;SDS011;22957;50.824;4.360;2023-06-10T10:01:10;1548.50;;;999.90;;
2390;SDS011;22957;50.824;4.360;2023-06-10T10:03:47;1546.17;;;999.90;;
2390;SDS011;22957;50.824;4.360;2023-06-10T10:06:15;1535.23;;;999.90;;
2390;SDS011;22957;50.824;4.360;2023-06-10T10:08:42;1544.70;;;999.90;;
2390;SDS011;22957;50.824;4.360;2023-06-10T10:11:08;1542.47;;;999.90;;
2390;SDS011;22957;50.824;4.360;2023-06-10T10:13:35;1542.43;;;999.90;;
2390;SDS011;22957;50.824;4.360;2023-06-10T10:16:07;1548.23;;;999.90;;
2390;SDS011;22957;50.824;4.360;2023-06-10T10:18:39;1554.80;;;999.90;;
2390;SDS011;22957;50.824;4.360;2023-06-10T10:21:11;1556.67;;;999.90;;
2390;SDS011;22957;50.824;4.360;2023-06-10T10:23:44;1556.73;;;999.90;;
2390;SDS011;22957;50.824;4.360;2023-06-10T10:26:21;1548.70;;;999.90;;
2390;SDS011;22957;50.824;4.360;2023-06-10T10:28:53;1550.20;;;999.90;;
2390;SDS011;22957;50.824;4.360;2023-06-10T10:31:30;1543.97;;;999.90;;
2390;SDS011;22957;50.824;4.360;2023-06-10T10:34:00;1553.23;;;999.90;;
2390;SDS011;22957;50.824;4.360;2023-06-10T10:36:29;1544.77;;;999.90;;
2390;SDS011;22957;50.824;4.360;2023-06-10T10:38:56;1548.07;;;999.90;;
2390;SDS011;22957;50.824;4.360;2023-06-10T10:41:23;1545.73;;;999.90;;
2390;SDS011;22957;50.824;4.360;2023-06-10T10:43:51;1543.27;;;999.90;;
2390;SDS011;22957;50.824;4.360;2023-06-10T10:46:17;1541.80;;;999.90;;
2390;SDS011;22957;50.824;4.360;2023-06-10T10:48:43;1544.40;;;999.90;;
2390;SDS011;22957;50.824;4.360;2023-06-10T10:51:10;1544.17;;;999.90;;
2390;SDS011;22957;50.824;4.360;2023-06-10T10:53:37;1547.07;;;999.90;;
2390;SDS011;22957;50.824;4.360;2023-06-10T10:56:07;1532.93;;;999.90;;
2390;SDS011;22957;50.824;4.360;2023-06-10T10:58:37;1532.40;;;999.90;;
2390;SDS011;22957;50.824;4.360;2023-06-10T11:01:13;1519.03;;;999.90;;
2390;SDS011;22957;50.824;4.360;2023-06-10T11:03:48;1517.30;;;999.90;;
2390;SDS011;22957;50.824;4.360;2023-06-10T11:06:14;1524.37;;;999.90;;
2390;SDS011;22957;50.824;4.360;2023-06-10T11:11:22;1536.30;;;999.90;;
2390;SDS011;22957;50.824;4.360;2023-06-10T11:13:59;1527.47;;;999.90;;
2390;SDS011;22957;50.824;4.360;2023-06-10T11:16:42;1534.63;;;999.90;;
2390;SDS011;22957;50.824;4.360;2023-06-10T11:19:08;1522.63;;;999.90;;
2390;SDS011;22957;50.824;4.360;2023-06-10T11:22:42;1523.60;;;999.90;;
2390;SDS011;22957;50.824;4.360;2023-06-10T11:24:32;1527.57;;;999.90;;
2390;SDS011;22957;50.824;4.360;2023-06-10T11:27:17;1534.87;;;999.90;;
2390;SDS011;22957;50.824;4.360;2023-06-10T11:29:57;1525.97;;;999.90;;
2390;SDS011;22957;50.824;4.360;2023-06-10T11:32:29;1527.83;;;999.90;;
2390;SDS011;22957;50.824;4.360;2023-06-10T11:34:59;1529.27;;;999.90;;
2390;SDS011;22957;50.824;4.360;2023-06-10T11:37:27;1535.80;;;999.90;;
2390;SDS011;22957;50.824;4.360;2023-06-10T11:39:56;1533.07;;;999.90;;
2390;SDS011;22957;50.824;4.360;2023-06-10T11:42:22;1531.03;;;999.90;;
2390;SDS011;22957;50.824;4.360;2023-06-10T11:44:50;1529.97;;;999.90;;
2390;SDS011;22957;50.824;4.360;2023-06-10T11:47:18;1533.73;;;999.90;;
2390;SDS011;22957;50.824;4.360;2023-06-10T11:49:45;1535.67;;;999.90;;
2390;SDS011;22957;50.824;4.360;2023-06-10T11:52:11;1534.30;;;999.90;;
2390;SDS011;22957;50.824;4.360;2023-06-10T11:54:37;1533.57;;;999.90;;
2390;SDS011;22957;50.824;4.360;2023-06-10T11:57:04;1526.63;;;999.90;;
2390;SDS011;22957;50.824;4.360;2023-06-10T11:59:29;1520.57;;;999.90;;
2390;SDS011;22957;50.824;4.360;2023-06-10T12:01:55;1521.03;;;999.90;;
2390;SDS011;22957;50.824;4.360;2023-06-10T12:04:21;1528.57;;;999.90;;
2390;SDS011;22957;50.824;4.360;2023-06-10T12:06:48;1522.43;;;999.90;;
2390;SDS011;22957;50.824;4.360;2023-06-10T12:09:21;1517.53;;;999.90;;
2390;SDS011;22957;50.824;4.360;2023-06-10T12:11:58;1530.00;;;999.90;;
2390;SDS011;22957;50.824;4.360;2023-06-10T12:19:57;1531.93;;;999.90;;
2390;SDS011;22957;50.824;4.360;2023-06-10T12:22:24;1534.80;;;999.90;;
2390;SDS011;22957;50.824;4.360;2023-06-10T12:27:28;1517.23;;;999.90;;
2390;SDS011;22957;50.824;4.360;2023-06-10T12:29:57;1526.03;;;999.90;;
2390;SDS011;22957;50.824;4.360;2023-06-10T12:32:41;1538.50;;;999.90;;
2390;SDS011;22957;50.824;4.360;2023-06-10T12:35:08;1540.43;;;999.90;;
2390;SDS011;22957;50.824;4.360;2023-06-10T12:37:35;1519.20;;;999.90;;
2390;SDS011;22957;50.824;4.360;2023-06-10T12:40:04;1524.90;;;999.90;;
2390;SDS011;22957;50.824;4.360;2023-06-10T12:42:31;1533.77;;;999.90;;
2390;SDS011;22957;50.824;4.360;2023-06-10T12:45:00;1525.03;;;999.90;;
2390;SDS011;22957;50.824;4.360;2023-06-10T12:47:32;1529.83;;;999.90;;
2390;SDS011;22957;50.824;4.360;2023-06-10T12:50:05;1534.63;;;999.90;;
2390;SDS011;22957;50.824;4.360;2023-06-10T12:52:32;1532.07;;;999.90;;
2390;SDS011;22957;50.824;4.360;2023-06-10T12:54:57;1530.00;;;999.90;;
2390;SDS011;22957;50.824;4.360;2023-06-10T12:57:23;1528.97;;;999.90;;
2390;SDS011;22957;50.824;4.360;2023-06-10T12:59:50;1535.47;;;999.90;;
2390;SDS011;22957;50.824;4.360;2023-06-10T13:02:20;1542.63;;;999.90;;
2390;SDS011;22957;50.824;4.360;2023-06-10T13:04:48;1534.27;;;999.90;;
2390;SDS011;22957;50.824;4.360;2023-06-10T13:07:14;1541.27;;;999.90;;
2390;SDS011;22957;50.824;4.360;2023-06-10T13:09:41;1540.07;;;999.90;;
2390;SDS011;22957;50.824;4.360;2023-06-10T13:12:07;1506.53;;;999.90;;
2390;SDS011;22957;50.824;4.360;2023-06-10T13:14:33;1555.30;;;999.90;;
2390;SDS011;22957;50.824;4.360;2023-06-10T13:16:58;1548.93;;;999.90;;
2390;SDS011;22957;50.824;4.360;2023-06-10T13:19:24;1509.97;;;999.90;;
2390;SDS011;22957;50.824;4.360;2023-06-10T13:21:49;1530.43;;;999.90;;
2390;SDS011;22957;50.824;4.360;2023-06-10T13:24:16;1494.97;;;999.90;;
2390;SDS011;22957;50.824;4.360;2023-06-10T13:26:42;1541.97;;;999.90;;
2390;SDS011;22957;50.824;4.360;2023-06-10T13:29:07;1544.67;;;999.90;;
2390;SDS011;22957;50.824;4.360;2023-06-10T13:31:38;1549.97;;;999.90;;
2390;SDS011;22957;50.824;4.360;2023-06-10T13:34:04;1555.07;;;999.90;;
2390;SDS011;22957;50.824;4.360;2023-06-10T13:36:30;1559.43;;;999.90;;
2390;SDS011;22957;50.824;4.360;2023-06-10T13:38:55;1557.97;;;999.90;;
2390;SDS011;22957;50.824;4.360;2023-06-10T13:41:21;1540.30;;;999.90;;
2390;SDS011;22957;50.824;4.360;2023-06-10T13:43:46;1538.50;;;999.90;;
2390;SDS011;22957;50.824;4.360;2023-06-10T13:46:12;1537.90;;;999.90;;
2390;SDS011;22957;50.824;4.360;2023-06-10T13:48:38;1547.43;;;999.90;;
2390;SDS011;22957;50.824;4.360;2023-06-10T13:51:03;1545.37;;;999.90;;
2390;SDS011;22957;50.824;4.360;2023-06-10T13:53:29;1541.37;;;999.90;;
2390;SDS011;22957;50.824;4.360;2023-06-10T13:55:55;1552.63;;;999.90;;
2390;SDS011;22957;50.824;4.360;2023-06-10T13:58:20;1534.33;;;999.90;;
2390;SDS011;22957;50.824;4.360;2023-06-10T14:00:46;1527.90;;;999.90;;
2390;SDS011;22957;50.824;4.360;2023-06-10T14:03:12;1536.87;;;999.90;;
2390;SDS011;22957;50.824;4.360;2023-06-10T14:05:38;1540.10;;;999.90;;
2390;SDS011;22957;50.824;4.360;2023-06-10T14:08:04;1546.33;;;999.90;;
2390;SDS011;22957;50.824;4.360;2023-06-10T14:10:29;1544.17;;;999.90;;
2390;SDS011;22957;50.824;4.360;2023-06-10T14:12:55;1546.33;;;999.90;;
2390;SDS011;22957;50.824;4.360;2023-06-10T14:15:20;1552.70;;;999.90;;
2390;SDS011;22957;50.824;4.360;2023-06-10T14:17:46;1549.33;;;999.90;;